Time;durP1;ratioP1;P1;durP2;ratioP2;P2;SDS_P1;SDS_P2;PMS_P1;PMS_P2;Temp;Humidity;BMP_temperature;BMP_pressure;BME280_temperature;BME280_humidity;BME280_pressure;Samples;Min_cycle;Max_cycle;Signal;HPM_P1;HPM_P2
2022/09/20 00:01:15;;;;;;;2.00;1.90;;;;;;;24.05;58.49;97822.63;5069509;28;20697;-31
2022/09/20 00:03:43;;;;;;;2.93;2.00;;;;;;;24.05;58.86;97812.34;5070232;28;20222;-31
2022/09/20 00:06:12;;;;;;;2.20;2.00;;;;;;;24.05;58.69;97810.66;5068882;28;20216;-31
2022/09/20 00:08:39;;;;;;;2.50;2.00;;;;;;;24.02;58.94;97791.75;5060577;28;20192;-31
2022/09/20 00:11:10;;;;;;;2.00;1.80;;;;;;;24.04;58.66;97795.22;5055154;28;20208;-31
2022/09/20 00:13:37;;;;;;;2.00;1.90;;;;;;;24.01;58.54;97793.44;5055848;28;20742;-31
2022/09/20 00:16:08;;;;;;;2.60;2.00;;;;;;;23.99;58.61;97799.38;5035819;28;20200;-31
2022/09/20 00:18:35;;;;;;;2.10;1.90;;;;;;;24.04;58.81;97813.19;5058343;28;20205;-31
2022/09/20 00:21:02;;;;;;;2.07;1.83;;;;;;;24.01;58.64;97805.41;5059058;28;20690;-31
2022/09/20 00:23:29;;;;;;;3.57;2.03;;;;;;;24.03;58.62;97816.56;5061698;28;20220;-31
2022/09/20 00:26:00;;;;;;;2.10;1.77;;;;;;;24.02;58.99;97819.97;5059622;28;20248;-31
2022/09/20 00:28:27;;;;;;;2.37;1.80;;;;;;;23.96;58.92;97804.44;5055837;28;20212;-31
2022/09/20 00:30:54;;;;;;;2.47;1.83;;;;;;;23.98;58.74;97807.91;5068151;28;20204;-31
2022/09/20 00:33:21;;;;;;;2.27;1.90;;;;;;;24.00;59.04;97812.25;5070058;28;20232;-31
2022/09/20 00:35:47;;;;;;;2.10;1.90;;;;;;;23.97;59.10;97806.16;5068415;28;20196;-31
2022/09/20 00:38:14;;;;;;;1.97;1.70;;;;;;;24.01;58.96;97806.28;5062100;28;20201;-31
2022/09/20 00:40:41;;;;;;;1.90;1.80;;;;;;;23.99;58.74;97801.94;5068624;28;20196;-31
2022/09/20 00:43:15;;;;;;;2.07;1.87;;;;;;;24.00;59.08;97807.13;5058886;28;20220;-31
2022/09/20 00:45:43;;;;;;;2.03;1.70;;;;;;;23.97;58.88;97794.19;5055898;28;20597;-31
2022/09/20 00:48:17;;;;;;;1.60;1.50;;;;;;;23.93;59.09;97786.34;5012783;28;20200;-31
2022/09/20 00:50:50;;;;;;;1.80;1.70;;;;;;;24.01;59.07;97802.84;5035571;28;21325;-31
2022/09/20 00:53:35;;;;;;;2.23;1.80;;;;;;;24.02;59.21;97805.47;5054028;28;20216;-31
2022/09/20 00:56:05;;;;;;;2.80;1.83;;;;;;;23.93;58.67;97776.09;5028379;28;20939;-31
2022/09/20 00:58:34;;;;;;;2.03;1.70;;;;;;;24.01;58.77;97811.41;5037992;28;20196;-31
2022/09/20 01:01:01;;;;;;;2.13;1.90;;;;;;;24.02;58.81;97809.72;5048764;28;20205;-31
2022/09/20 01:03:30;;;;;;;1.90;1.80;;;;;;;24.01;58.56;97811.41;5046971;28;20589;-31
2022/09/20 01:05:56;;;;;;;2.17;1.83;;;;;;;23.95;58.79;97790.72;5034750;28;20227;-31
2022/09/20 01:08:24;;;;;;;2.43;2.03;;;;;;;23.92;58.76;97795.75;5032345;28;20325;-31
2022/09/20 01:10:51;;;;;;;2.13;1.90;;;;;;;24.02;58.87;97813.16;5059123;28;20201;-31
2022/09/20 01:13:17;;;;;;;2.73;1.73;;;;;;;24.01;59.12;97800.28;5065671;28;20212;-31
2022/09/20 01:15:44;;;;;;;1.83;1.70;;;;;;;23.99;58.92;97797.69;5066203;28;20203;-31
2022/09/20 01:18:11;;;;;;;1.90;1.70;;;;;;;23.99;59.18;97799.38;5030110;28;20192;-31
2022/09/20 01:20:38;;;;;;;1.67;1.57;;;;;;;23.99;59.04;97805.38;5042459;28;20212;-31
2022/09/20 01:23:29;;;;;;;2.10;1.90;;;;;;;24.02;58.91;97804.56;5037021;28;20235;-31
2022/09/20 01:26:14;;;;;;;2.50;1.80;;;;;;;24.02;59.15;97813.16;5041192;28;20726;-31
2022/09/20 01:28:42;;;;;;;2.27;1.70;;;;;;;23.97;58.93;97801.03;5068919;28;20204;-31
2022/09/20 01:31:29;;;;;;;2.27;1.97;;;;;;;23.90;58.88;97776.00;5036242;28;20212;-31
2022/09/20 01:34:00;;;;;;;2.37;2.10;;;;;;;24.03;59.06;97796.03;5030549;28;20262;-31
2022/09/20 01:36:34;;;;;;;2.03;1.80;;;;;;;24.02;59.07;97789.19;5039225;28;20204;-31
2022/09/20 01:39:28;;;;;;;2.77;1.50;;;;;;;24.01;58.89;97788.28;5042444;28;20683;-31
2022/09/20 01:42:01;;;;;;;2.13;1.93;;;;;;;24.01;58.72;97793.44;5052669;28;20204;-31
2022/09/20 01:44:48;;;;;;;1.70;1.60;;;;;;;24.01;59.26;97790.03;5059131;28;20221;-31
2022/09/20 01:47:41;;;;;;;1.70;1.60;;;;;;;24.00;58.99;97788.25;5064419;28;20568;-31
2022/09/20 01:50:23;;;;;;;2.63;1.80;;;;;;;23.99;59.17;97789.97;5026679;28;20288;-31
2022/09/20 01:52:57;;;;;;;1.90;1.77;;;;;;;23.98;59.22;97785.66;5049953;28;20226;-31
2022/09/20 01:55:29;;;;;;;1.83;1.63;;;;;;;23.98;59.04;97780.53;5057362;28;20233;-31
2022/09/20 01:58:23;;;;;;;1.90;1.80;;;;;;;23.91;59.37;97776.03;5060055;28;20193;-31
2022/09/20 02:01:29;;;;;;;2.00;1.80;;;;;;;23.97;59.49;97786.50;5044385;28;20200;-31
2022/09/20 02:03:58;;;;;;;1.67;1.37;;;;;;;23.98;59.32;97780.53;5066708;28;20659;-31
2022/09/20 02:07:11;;;;;;;2.13;1.93;;;;;;;23.98;59.22;97793.34;5065607;28;20594;-31
2022/09/20 02:09:40;;;;;;;2.07;1.83;;;;;;;23.99;59.32;97781.41;4957008;28;20210;-31
2022/09/20 02:12:28;;;;;;;1.90;1.80;;;;;;;23.99;59.30;97789.97;5059427;28;20192;-31
2022/09/20 02:15:05;;;;;;;1.80;1.70;;;;;;;23.99;59.37;97783.97;5061673;28;20226;-31
2022/09/20 02:17:31;;;;;;;2.10;1.90;;;;;;;23.98;59.24;97785.66;5058678;28;20200;-31
2022/09/20 02:20:39;;;;;;;1.70;1.60;;;;;;;23.99;59.32;97789.97;5054093;28;20550;-31
2022/09/20 02:23:27;;;;;;;2.07;1.87;;;;;;;24.00;59.21;97790.81;5020516;28;20688;-31
2022/09/20 02:26:13;;;;;;;1.70;1.60;;;;;;;23.99;59.18;97783.97;5050880;28;20220;-32
2022/09/20 02:28:48;;;;;;;1.80;1.70;;;;;;;23.99;59.21;97795.13;5067132;28;20200;-31
2022/09/20 02:31:47;;;;;;;1.60;1.50;;;;;;;23.99;59.12;97796.81;5074344;28;20378;-31
2022/09/20 02:35:05;;;;;;;1.80;1.53;;;;;;;23.99;59.22;97789.09;5045555;28;20228;-31
2022/09/20 02:37:41;;;;;;;1.87;1.50;;;;;;;23.99;59.31;97797.69;5038889;28;20200;-31
2022/09/20 02:40:31;;;;;;;1.87;1.60;;;;;;;23.99;59.30;97799.38;5068682;28;20557;-31
2022/09/20 02:43:06;;;;;;;1.70;1.60;;;;;;;23.98;59.11;97800.22;5064264;28;20212;-31
2022/09/20 02:45:51;;;;;;;1.77;1.63;;;;;;;23.91;59.38;97782.88;5050075;28;20228;-31
2022/09/20 02:48:20;;;;;;;1.97;1.67;;;;;;;24.00;59.24;97803.66;5031656;28;20227;-31
2022/09/20 02:51:05;;;;;;;1.80;1.70;;;;;;;24.00;59.09;97803.66;5031503;28;20192;-31
2022/09/20 02:53:38;;;;;;;1.50;1.40;;;;;;;23.99;59.30;97797.69;5056612;28;20223;-31
2022/09/20 02:56:28;;;;;;;1.73;1.63;;;;;;;23.99;59.32;97789.09;5043747;28;20200;-31
2022/09/20 02:59:04;;;;;;;1.77;1.60;;;;;;;23.99;59.01;97805.38;5058252;28;20200;-31
2022/09/20 03:01:52;;;;;;;2.10;1.63;;;;;;;23.99;59.12;97807.06;5055886;28;20212;-31
2022/09/20 03:04:25;;;;;;;1.70;1.60;;;;;;;23.99;59.24;97809.66;5060497;28;20220;-31
2022/09/20 03:07:00;;;;;;;1.77;1.67;;;;;;;23.99;59.45;97801.94;5064032;28;20227;-31
2022/09/20 03:09:46;;;;;;;2.10;1.70;;;;;;;23.97;59.28;97804.47;5035970;28;20197;-31
2022/09/20 03:12:37;;;;;;;2.30;1.80;;;;;;;23.96;59.57;97807.88;5045843;28;20196;-31
2022/09/20 03:15:25;;;;;;;1.67;1.57;;;;;;;23.97;59.35;97803.59;5064819;28;20204;-31
2022/09/20 03:17:59;;;;;;;2.37;1.60;;;;;;;23.95;59.04;97806.13;5061984;28;20211;-31
2022/09/20 03:20:44;;;;;;;2.40;1.77;;;;;;;23.97;59.44;97803.59;5043892;28;20675;-31
2022/09/20 03:23:48;;;;;;;1.67;1.57;;;;;;;23.95;59.24;97801.00;5068884;28;20220;-31
2022/09/20 03:26:20;;;;;;;1.60;1.50;;;;;;;23.95;59.58;97800.09;5060548;28;20247;-31
2022/09/20 03:28:58;;;;;;;3.07;1.60;;;;;;;23.95;59.61;97798.41;5060924;28;20204;-31
2022/09/20 03:31:47;;;;;;;1.80;1.63;;;;;;;23.96;59.41;97797.59;5036494;28;20196;-31
2022/09/20 03:34:42;;;;;;;4.07;1.80;;;;;;;23.96;59.41;97797.59;5062838;28;20252;-31
2022/09/20 03:37:51;;;;;;;2.37;1.70;;;;;;;23.95;59.68;97801.00;5064017;28;20203;-31
2022/09/20 03:40:30;;;;;;;1.90;1.70;;;;;;;23.97;59.24;97795.88;4988926;28;20199;-31
2022/09/20 03:43:12;;;;;;;1.50;1.40;;;;;;;23.97;59.26;97793.31;4975466;28;20219;-31
2022/09/20 03:45:45;;;;;;;1.83;1.67;;;;;;;23.93;59.18;97797.50;5043669;28;20220;-31
2022/09/20 03:48:28;;;;;;;1.83;1.60;;;;;;;23.93;59.52;97797.50;5037254;28;20720;-31
2022/09/20 03:50:58;;;;;;;2.23;1.80;;;;;;;23.97;59.17;97804.47;5042553;28;20491;-31
2022/09/20 03:53:52;;;;;;;1.67;1.57;;;;;;;23.98;59.27;97810.47;5061040;28;20380;-31
2022/09/20 03:56:43;;;;;;;1.63;1.53;;;;;;;23.96;59.55;97802.75;5062819;28;20294;-31
2022/09/20 03:59:12;;;;;;;1.67;1.40;;;;;;;23.97;59.32;97807.03;5071394;28;20196;-31
2022/09/20 04:01:45;;;;;;;1.70;1.60;;;;;;;23.96;59.28;97799.28;5066264;28;20200;-31
2022/09/20 04:04:29;;;;;;;1.40;1.30;;;;;;;23.97;59.20;97799.34;5066035;28;20216;-31
2022/09/20 04:07:13;;;;;;;1.40;1.30;;;;;;;23.96;59.47;97800.19;5058622;28;20733;-31
2022/09/20 04:09:46;;;;;;;1.93;1.60;;;;;;;23.97;59.38;97795.88;5024580;28;20193;-31
2022/09/20 04:12:27;;;;;;;1.63;1.53;;;;;;;23.91;59.02;97785.44;5035231;28;20671;-31
2022/09/20 04:15:12;;;;;;;1.60;1.50;;;;;;;23.97;59.23;97804.47;5057414;28;20205;-31
2022/09/20 04:17:46;;;;;;;1.60;1.50;;;;;;;23.97;59.26;97807.03;5056883;28;20220;-31
2022/09/20 04:20:38;;;;;;;1.57;1.47;;;;;;;23.97;59.52;97807.03;5060071;28;20209;-31
2022/09/20 04:23:19;;;;;;;1.60;1.50;;;;;;;23.96;59.24;97810.44;5058135;28;20227;-31
2022/09/20 04:25:47;;;;;;;2.13;1.70;;;;;;;23.95;59.25;97811.25;5054046;28;20226;-31
2022/09/20 04:28:21;;;;;;;1.43;1.33;;;;;;;23.86;59.52;97789.63;5071689;28;20193;-31
2022/09/20 04:30:48;;;;;;;1.80;1.50;;;;;;;23.93;59.76;97818.03;5052154;28;20196;-31
2022/09/20 04:33:28;;;;;;;1.80;1.70;;;;;;;23.95;59.52;97818.06;5037993;28;20231;-31
2022/09/20 04:36:29;;;;;;;1.73;1.63;;;;;;;23.94;59.57;97819.75;5036019;28;20694;-31
2022/09/20 04:39:31;;;;;;;1.60;1.50;;;;;;;23.94;59.70;97817.19;5066301;28;20204;-31
2022/09/20 04:42:14;;;;;;;1.87;1.50;;;;;;;23.95;59.59;97820.66;5006907;28;20206;-31
2022/09/20 04:44:52;;;;;;;1.90;1.50;;;;;;;23.95;59.53;97825.78;5060675;28;20223;-31
2022/09/20 04:47:24;;;;;;;1.53;1.43;;;;;;;23.95;59.66;97829.22;5071775;28;20705;-31
2022/09/20 04:50:29;;;;;;;3.07;1.73;;;;;;;23.96;59.37;97835.25;5048072;28;20290;-31
2022/09/20 04:53:04;;;;;;;1.40;1.30;;;;;;;23.96;59.55;97841.25;5038620;28;20592;-31
2022/09/20 04:55:34;;;;;;;1.83;1.63;;;;;;;23.96;59.41;97833.56;5071397;28;20206;-31
2022/09/20 04:58:09;;;;;;;1.97;1.67;;;;;;;23.97;59.63;97840.41;5069783;28;20208;-31
2022/09/20 05:00:52;;;;;;;1.67;1.57;;;;;;;23.97;59.64;97839.53;5068509;28;20204;-31
2022/09/20 05:03:56;;;;;;;1.83;1.60;;;;;;;23.97;59.50;97844.66;5054633;28;20220;-31
2022/09/20 05:06:37;;;;;;;1.60;1.50;;;;;;;23.96;59.31;97841.25;5061643;28;20223;-31
2022/09/20 05:09:22;;;;;;;1.60;1.50;;;;;;;23.97;59.51;97842.97;5065079;28;20577;-31
2022/09/20 05:12:13;;;;;;;1.50;1.33;;;;;;;23.97;59.47;97848.13;5060034;28;20203;-31
2022/09/20 05:14:40;;;;;;;2.70;1.63;;;;;;;23.98;58.90;97849.00;5074739;28;20670;-31
2022/09/20 05:17:30;;;;;;;1.60;1.50;;;;;;;23.85;57.56;97826.38;5065586;28;20200;-31
2022/09/20 05:20:23;;;;;;;3.40;1.80;;;;;;;23.98;56.18;97849.00;5039932;28;20192;-31
2022/09/20 05:23:11;;;;;;;3.23;2.13;;;;;;;23.98;54.44;97851.56;5065694;28;20212;-31
2022/09/20 05:26:02;;;;;;;4.40;2.13;;;;;;;23.97;53.17;97860.06;5069572;28;20204;-31
2022/09/20 05:29:08;;;;;;;3.20;1.87;;;;;;;23.96;52.36;97859.22;5065005;28;20686;-31
2022/09/20 05:31:48;;;;;;;2.90;2.10;;;;;;;23.91;51.58;97849.63;5072710;28;20580;-31
2022/09/20 05:34:41;;;;;;;5.43;2.13;;;;;;;23.95;50.92;97859.16;5041518;28;20224;-31
2022/09/20 05:37:27;;;;;;;4.10;2.47;;;;;;;23.94;50.82;97858.28;5057887;28;20720;-31
2022/09/20 05:40:30;;;;;;;3.27;2.27;;;;;;;23.93;51.03;97866.81;5068412;28;20207;-31
2022/09/20 05:43:11;;;;;;;4.10;2.20;;;;;;;23.93;52.07;97860.81;5056484;28;20216;-31
2022/09/20 05:45:59;;;;;;;5.00;2.00;;;;;;;23.93;52.37;97860.81;5038583;28;20214;-31
2022/09/20 05:48:38;;;;;;;2.70;2.00;;;;;;;23.92;53.02;97864.22;5054419;28;20228;-31
2022/09/20 05:51:26;;;;;;;5.10;2.07;;;;;;;23.92;53.18;97871.91;5067866;28;20208;-31
2022/09/20 05:54:16;;;;;;;7.13;2.30;;;;;;;23.91;52.06;97871.03;5056182;28;20224;-31
2022/09/20 05:56:51;;;;;;;4.27;2.77;;;;;;;23.90;50.91;97866.75;5056816;28;20200;-31
2022/09/20 05:59:40;;;;;;;3.77;2.43;;;;;;;23.89;51.25;97877.81;5060970;28;20207;-31
2022/09/20 06:02:22;;;;;;;2.67;2.10;;;;;;;23.89;51.48;97877.81;5037331;28;20200;-31
2022/09/20 06:04:58;;;;;;;6.50;2.40;;;;;;;23.88;52.42;97868.38;5065086;28;20663;-31
2022/09/20 06:08:07;;;;;;;8.33;2.47;;;;;;;23.89;52.89;97866.69;5058737;28;20225;-31
2022/09/20 06:10:55;;;;;;;6.57;2.40;;;;;;;23.89;53.23;97879.53;5046624;28;20205;-31
2022/09/20 06:13:38;;;;;;;4.63;2.20;;;;;;;23.89;53.77;97879.53;5040753;28;20228;-31
2022/09/20 06:16:06;;;;;;;3.47;2.10;;;;;;;23.88;54.19;97877.78;5046886;28;20208;-31
2022/09/20 06:19:09;;;;;;;2.27;1.87;;;;;;;23.82;54.16;97865.66;5062851;28;20207;-31
2022/09/20 06:21:49;;;;;;;4.07;2.50;;;;;;;23.90;52.01;97894.09;5052367;28;20654;-31
2022/09/20 06:24:30;;;;;;;5.40;2.77;;;;;;;23.89;51.31;97884.69;5071438;28;20212;-31
2022/09/20 06:26:58;;;;;;;5.60;2.83;;;;;;;23.87;51.75;97881.19;5052249;28;20216;-31
2022/09/20 06:29:29;;;;;;;7.97;2.77;;;;;;;23.89;51.89;97889.81;5032040;28;20196;-31
2022/09/20 06:31:56;;;;;;;4.90;2.57;;;;;;;23.88;52.47;97885.47;5037299;28;20203;-31
2022/09/20 06:34:22;;;;;;;4.93;2.70;;;;;;;23.89;52.87;97890.66;5065642;28;20239;-31
2022/09/20 06:42:53;;;;;;;4.40;2.07;;;;;;;23.89;54.14;97879.53;5051437;28;20710;-31
2022/09/20 06:45:20;;;;;;;3.97;1.83;;;;;;;23.89;54.09;97888.09;5064873;28;20204;-31
2022/09/20 06:47:47;;;;;;;2.87;2.20;;;;;;;23.89;54.59;97888.09;5062502;28;20243;-31
2022/09/20 06:50:15;;;;;;;3.00;2.00;;;;;;;23.90;54.49;97891.53;5070006;28;20204;-31
2022/09/20 06:52:41;;;;;;;3.73;2.13;;;;;;;23.85;54.78;97886.28;5072961;28;20223;-31
2022/09/20 06:55:10;;;;;;;2.23;2.00;;;;;;;23.90;54.76;97892.41;5049810;28;20212;-31
2022/09/20 06:57:37;;;;;;;2.10;1.90;;;;;;;23.90;55.09;97894.97;5053508;28;20193;-31
2022/09/20 07:00:10;;;;;;;3.60;2.20;;;;;;;23.91;55.31;97901.84;5047717;28;20205;-31
2022/09/20 07:02:36;;;;;;;2.80;2.00;;;;;;;23.91;55.53;97908.66;5065799;28;20583;-31
2022/09/20 07:05:05;;;;;;;2.73;1.93;;;;;;;23.91;55.17;97906.97;5068509;28;20205;-31
2022/09/20 07:07:31;;;;;;;3.13;2.20;;;;;;;23.92;55.58;97905.28;5066590;28;20224;-31
2022/09/20 07:09:58;;;;;;;2.17;1.93;;;;;;;23.92;55.72;97905.28;5066701;28;20196;-31
2022/09/20 07:12:24;;;;;;;18.27;2.33;;;;;;;23.90;55.83;97900.13;5060514;28;20205;-31
2022/09/20 07:14:51;;;;;;;3.07;2.07;;;;;;;23.72;55.87;97861.13;5064407;28;20200;-31
2022/09/20 07:17:18;;;;;;;3.40;2.20;;;;;;;23.91;55.86;97901.84;5072405;28;20204;-31
2022/09/20 07:19:44;;;;;;;2.73;2.00;;;;;;;23.90;56.07;97894.97;5068685;28;20204;-31
2022/09/20 07:22:11;;;;;;;3.50;1.87;;;;;;;23.90;56.23;97894.97;5060793;28;20197;-31
2022/09/20 07:24:37;;;;;;;3.10;2.03;;;;;;;23.91;56.15;97889.00;5067344;28;20207;-31
2022/09/20 07:27:04;;;;;;;2.67;2.00;;;;;;;23.89;56.29;97894.94;5068968;28;20217;-31
2022/09/20 07:29:31;;;;;;;2.50;1.97;;;;;;;23.91;56.28;97904.41;5047502;28;20211;-31
2022/09/20 07:31:57;;;;;;;4.40;1.87;;;;;;;23.91;56.13;97901.84;5072897;28;20200;-31
2022/09/20 07:34:24;;;;;;;2.90;2.00;;;;;;;23.85;56.32;97886.28;5069850;28;20231;-31
2022/09/20 07:36:51;;;;;;;3.43;2.20;;;;;;;23.92;56.38;97907.84;5068261;28;20199;-31
2022/09/20 07:39:17;;;;;;;2.27;1.93;;;;;;;23.93;56.46;97907.00;5069125;28;20235;-31
2022/09/20 07:41:49;;;;;;;3.87;2.00;;;;;;;23.93;56.33;97907.91;5070868;28;20219;-31
2022/09/20 07:44:26;;;;;;;3.43;2.07;;;;;;;23.92;56.33;97911.28;5064415;28;20714;-31
2022/09/20 07:46:54;;;;;;;2.90;1.87;;;;;;;23.92;56.37;97908.69;5072333;28;20228;-31
2022/09/20 07:49:21;;;;;;;3.60;2.10;;;;;;;23.91;56.73;97911.22;5073805;28;20196;-31
2022/09/20 07:51:51;;;;;;;3.00;1.90;;;;;;;23.94;56.45;97911.31;5063253;28;20196;-31
2022/09/20 07:54:18;;;;;;;2.67;2.00;;;;;;;23.91;56.54;97903.53;5060004;28;20224;-31
2022/09/20 07:56:45;;;;;;;3.07;1.90;;;;;;;23.93;56.80;97918.16;5064042;28;20196;-31
2022/09/20 07:59:12;;;;;;;3.17;1.77;;;;;;;23.94;56.75;97921.56;5070190;28;20364;-31
2022/09/20 08:01:39;;;;;;;3.73;1.67;;;;;;;23.93;56.65;97920.72;5063025;28;20196;-31
2022/09/20 08:04:08;;;;;;;6.97;2.00;;;;;;;23.93;56.65;97923.31;5069122;28;20220;-31
2022/09/20 08:06:36;;;;;;;3.87;2.13;;;;;;;23.94;56.97;97925.03;5064195;28;20593;-31
2022/09/20 08:09:04;;;;;;;3.40;1.93;;;;;;;23.94;57.04;97930.16;5072163;28;20204;-31
2022/09/20 08:11:37;;;;;;;2.93;2.20;;;;;;;23.93;56.86;97931.00;5070073;28;20197;-31
2022/09/20 08:14:03;;;;;;;2.70;1.93;;;;;;;23.92;57.11;97920.69;5072411;28;20223;-31
2022/09/20 08:16:37;;;;;;;2.23;2.00;;;;;;;23.96;57.30;97937.94;5054866;28;20230;-31
2022/09/20 08:19:03;;;;;;;3.73;1.87;;;;;;;23.95;56.92;97925.91;5073013;28;20196;-31
2022/09/20 08:21:32;;;;;;;3.10;1.93;;;;;;;23.96;57.12;97930.22;5063402;28;20196;-31
2022/09/20 08:23:58;;;;;;;3.97;1.83;;;;;;;23.95;56.91;97929.34;5071993;28;20216;-31
2022/09/20 08:26:26;;;;;;;2.80;1.90;;;;;;;23.95;56.86;97937.06;5071724;28;20690;-31
2022/09/20 08:28:56;;;;;;;4.93;2.10;;;;;;;23.95;56.79;97934.50;5062901;28;20197;-31
2022/09/20 08:31:24;;;;;;;4.27;1.97;;;;;;;23.94;57.00;97932.72;5063356;28;20201;-31
2022/09/20 08:33:51;;;;;;;3.43;2.17;;;;;;;23.94;57.40;97939.56;5052957;28;20281;-30
2022/09/20 08:36:23;;;;;;;3.40;2.00;;;;;;;23.94;57.48;97934.41;5066317;28;20942;-30
2022/09/20 08:38:49;;;;;;;5.33;2.40;;;;;;;23.93;57.26;97941.28;5066843;28;20671;-31
2022/09/20 08:41:59;;;;;;;4.87;2.03;;;;;;;23.83;57.57;97925.59;5069250;28;20228;-30
2022/09/20 08:44:46;;;;;;;4.13;2.00;;;;;;;23.93;57.36;97943.84;5048129;28;20216;-30
2022/09/20 08:47:23;;;;;;;2.73;1.70;;;;;;;23.86;57.83;97934.22;5043766;28;20611;-30
2022/09/20 08:49:51;;;;;;;3.50;1.77;;;;;;;23.84;57.48;97922.19;5048093;28;20200;-30
2022/09/20 08:52:34;;;;;;;3.17;2.27;;;;;;;23.94;57.62;97936.97;5039575;28;20658;-31
2022/09/20 08:55:12;;;;;;;5.57;1.80;;;;;;;23.95;58.07;97941.31;5040325;28;20429;-30
2022/09/20 08:57:38;;;;;;;2.37;1.80;;;;;;;23.95;57.75;97939.63;5047910;28;20192;-30
2022/09/20 09:00:05;;;;;;;3.17;1.70;;;;;;;23.90;57.77;97930.03;5060047;28;20212;-29
2022/09/20 09:02:33;;;;;;;3.00;1.90;;;;;;;23.95;57.80;97941.31;5048102;28;20224;-30
2022/09/20 09:05:18;;;;;;;4.20;2.10;;;;;;;23.95;57.86;97942.19;5064067;28;20211;-29
2022/09/20 09:07:45;;;;;;;2.97;1.90;;;;;;;23.95;57.90;97943.88;5043632;28;20571;-30
2022/09/20 09:10:12;;;;;;;3.47;1.90;;;;;;;23.95;58.16;97938.75;5044603;28;20202;-30
2022/09/20 09:12:38;;;;;;;3.13;1.97;;;;;;;23.92;57.89;97933.53;5046649;28;20638;-30
2022/09/20 09:15:35;;;;;;;2.87;1.90;;;;;;;23.95;58.07;97942.19;5049064;28;20200;-30
2022/09/20 09:18:02;;;;;;;3.67;2.07;;;;;;;23.95;58.20;97933.59;5047510;28;20197;-30
2022/09/20 09:20:28;;;;;;;2.20;1.50;;;;;;;23.95;58.08;97939.63;5066631;28;20204;-31
2022/09/20 09:23:05;;;;;;;4.67;2.10;;;;;;;23.95;57.98;97934.50;5067283;28;20220;-30
2022/09/20 09:25:36;;;;;;;6.67;2.30;;;;;;;23.94;57.88;97945.56;5065323;28;20200;-30
2022/09/20 09:28:13;;;;;;;3.20;1.93;;;;;;;23.96;57.97;97925.09;5067012;28;20235;-30
2022/09/20 09:30:41;;;;;;;4.03;1.80;;;;;;;23.95;57.34;97929.34;5059151;28;20608;-30
2022/09/20 09:33:29;;;;;;;2.13;1.67;;;;;;;23.90;57.23;97924.91;5063351;28;20224;-30
2022/09/20 09:36:13;;;;;;;3.30;2.00;;;;;;;23.94;57.18;97922.47;5045605;28;20215;-30
2022/09/20 09:38:43;;;;;;;3.97;2.10;;;;;;;23.93;57.73;97920.72;5064551;28;20198;-31
2022/09/20 09:41:25;;;;;;;4.13;1.90;;;;;;;23.92;57.43;97913.84;5042327;28;20465;-30
2022/09/20 09:43:59;;;;;;;4.10;1.87;;;;;;;23.87;57.98;97910.31;5059648;28;20218;-30
2022/09/20 09:46:29;;;;;;;4.47;1.80;;;;;;;23.92;57.86;97913.84;5052626;28;20216;-30
2022/09/20 09:49:16;;;;;;;2.97;1.90;;;;;;;23.94;57.80;97911.31;5048100;28;20235;-30
2022/09/20 09:51:54;;;;;;;2.83;1.90;;;;;;;23.93;57.80;97913.03;5068788;28;20207;-31
2022/09/20 09:54:21;;;;;;;2.23;1.70;;;;;;;23.90;58.10;97899.22;5054521;28;20220;-30
2022/09/20 09:56:56;;;;;;;4.27;1.50;;;;;;;23.94;57.75;97891.66;5039472;28;20204;-29
2022/09/20 09:59:26;;;;;;;5.43;2.37;;;;;;;23.95;57.96;97901.13;5052981;28;20207;-29
2022/09/20 10:02:03;;;;;;;5.40;2.37;;;;;;;23.96;57.84;97900.31;5072641;28;20689;-30
2022/09/20 10:04:32;;;;;;;6.30;2.77;;;;;;;23.99;57.94;97904.63;5064777;28;20315;-30
2022/09/20 10:07:26;;;;;;;14.77;2.90;;;;;;;23.99;57.51;97904.63;5068391;28;20564;-30
2022/09/20 10:10:28;;;;;;;11.03;3.07;;;;;;;23.99;57.86;97909.78;5046294;28;20204;-30
2022/09/20 10:13:08;;;;;;;36.43;9.17;;;;;;;23.99;57.53;97913.22;5036669;28;20219;-29
2022/09/20 10:15:48;;;;;;;55.33;15.23;;;;;;;24.00;57.24;97902.09;5046541;28;20211;-30
2022/09/20 10:18:38;;;;;;;54.67;16.73;;;;;;;23.99;56.73;97902.94;5051642;28;20197;-30
2022/09/20 10:21:22;;;;;;;64.07;19.17;;;;;;;24.00;56.47;97891.84;5049438;28;20204;-31
2022/09/20 10:23:58;;;;;;;63.27;19.80;;;;;;;24.00;56.43;97891.84;5042900;28;20572;-30
2022/09/20 10:26:51;;;;;;;66.30;19.87;;;;;;;24.01;56.36;97893.56;5066898;28;20279;-30
2022/09/20 10:29:44;;;;;;;66.40;20.43;;;;;;;23.93;56.26;97877.09;5043154;28;20193;-30
2022/09/20 10:32:26;;;;;;;56.90;19.97;;;;;;;24.03;56.02;97897.06;5052667;28;20203;-30
2022/09/20 10:35:10;;;;;;;57.13;19.53;;;;;;;24.03;56.24;97884.22;5065649;28;20196;-30
2022/09/20 10:38:02;;;;;;;58.87;18.27;;;;;;;24.04;56.14;97893.66;5069691;28;20197;-30
2022/09/20 10:43:37;;;;;;;54.47;18.63;;;;;;;24.04;56.01;97878.22;5052602;28;20227;-30
2022/09/20 10:46:42;;;;;;;59.20;18.40;;;;;;;24.05;55.82;97873.97;5056441;28;20205;-30
2022/09/20 10:49:35;;;;;;;52.77;18.20;;;;;;;24.05;55.91;97874.84;5033255;28;20220;-30
2022/09/20 10:52:01;;;;;;;57.30;18.73;;;;;;;24.05;55.50;97882.56;5059492;28;20208;-30
2022/09/20 10:54:34;;;;;;;58.70;19.20;;;;;;;24.05;55.41;97874.84;5057075;28;20230;-30
2022/09/20 10:57:39;;;;;;;48.20;17.70;;;;;;;24.06;55.65;97885.97;5062987;28;20205;-30
2022/09/20 11:00:25;;;;;;;53.47;18.80;;;;;;;24.06;55.58;97892.00;5022941;28;20298;-30
2022/09/20 11:03:24;;;;;;;53.47;18.97;;;;;;;24.07;55.72;97891.16;5041802;28;20220;-30
2022/09/20 11:06:19;;;;;;;52.00;17.17;;;;;;;24.05;55.79;97891.94;5039632;28;20211;-30
2022/09/20 11:08:49;;;;;;;54.53;17.77;;;;;;;24.05;56.06;97892.84;5051643;28;20580;-30
2022/09/20 11:11:27;;;;;;;44.93;17.30;;;;;;;24.06;56.33;97896.25;5065919;28;20313;-30
2022/09/20 11:14:15;;;;;;;53.37;17.37;;;;;;;24.05;55.87;97894.53;5050808;28;20246;-30
2022/09/20 11:16:46;;;;;;;47.93;16.70;;;;;;;24.05;56.38;97886.81;5065613;28;20674;-30
2022/09/20 11:19:27;;;;;;;50.37;16.70;;;;;;;24.00;56.03;97886.72;5065223;28;20257;-30
2022/09/20 11:22:00;;;;;;;46.40;17.23;;;;;;;24.03;55.82;97885.91;5051198;28;20207;-30
2022/09/20 11:24:33;;;;;;;46.37;16.37;;;;;;;23.96;56.51;97884.91;5043080;28;20216;-29
2022/09/20 11:27:11;;;;;;;49.10;17.30;;;;;;;24.05;55.91;97892.84;5045496;28;20311;-30
2022/09/20 11:29:41;;;;;;;30.87;11.47;;;;;;;24.02;51.90;97889.31;5048060;28;20196;-31
2022/09/20 11:32:10;;;;;;;31.20;11.60;;;;;;;24.03;51.10;97894.47;5049412;28;20209;-29
2022/09/20 11:34:54;;;;;;;22.67;7.67;;;;;;;24.03;49.37;97891.03;5052536;28;20208;-30
2022/09/20 11:37:21;;;;;;;13.80;6.23;;;;;;;24.00;47.48;97891.84;5034209;28;20196;-30
2022/09/20 11:39:52;;;;;;;18.37;6.73;;;;;;;23.99;47.03;97908.09;5041096;28;20211;-30
2022/09/20 11:42:21;;;;;;;15.70;5.73;;;;;;;23.95;48.11;97910.50;5068103;28;20196;-30
2022/09/20 11:44:47;;;;;;;17.93;5.10;;;;;;;23.99;48.67;97923.50;5030149;28;20207;-31
2022/09/20 11:47:23;;;;;;;15.00;5.63;;;;;;;23.99;49.12;97910.66;5049771;28;20205;-30
2022/09/20 11:50:12;;;;;;;10.23;5.03;;;;;;;23.99;49.63;97914.91;5058836;28;20652;-30
2022/09/20 11:53:03;;;;;;;16.07;6.00;;;;;;;23.98;50.21;97911.47;5065499;28;20699;-30
2022/09/20 11:55:59;;;;;;;13.83;5.47;;;;;;;23.95;50.96;97900.22;5055899;28;20204;-29
2022/09/20 11:58:26;;;;;;;19.37;5.77;;;;;;;23.97;51.37;97904.59;5040587;28;20197;-30
2022/09/20 12:00:55;;;;;;;12.23;5.70;;;;;;;23.96;51.27;97902.00;5066818;28;20207;-30
2022/09/20 12:03:36;;;;;;;16.50;5.73;;;;;;;23.95;51.83;97908.81;5039920;28;20228;-30
2022/09/20 12:06:07;;;;;;;15.30;6.50;;;;;;;23.93;52.19;97920.72;5035079;28;20204;-30
2022/09/20 12:08:36;;;;;;;12.17;5.23;;;;;;;23.97;52.07;97929.38;5060309;28;20609;-31
2022/09/20 12:11:07;;;;;;;13.63;5.70;;;;;;;23.89;52.34;97916.31;5066283;28;20223;-30
2022/09/20 12:13:36;;;;;;;14.17;5.67;;;;;;;23.93;52.61;97910.47;5036817;28;20243;-30
2022/09/20 12:16:07;;;;;;;12.50;5.63;;;;;;;23.99;52.80;97917.47;5039096;28;20200;-30
2022/09/20 12:18:34;;;;;;;12.27;5.43;;;;;;;23.97;53.08;97909.72;5065214;28;20196;-30
2022/09/20 12:21:04;;;;;;;11.97;5.27;;;;;;;23.99;52.97;97907.22;5061560;28;20215;-30
2022/09/20 12:23:40;;;;;;;13.60;5.57;;;;;;;23.99;53.26;97914.91;5058728;28;20215;-30
2022/09/20 12:26:06;;;;;;;14.57;5.80;;;;;;;24.00;53.39;97912.38;5053579;28;20200;-30
2022/09/20 12:28:34;;;;;;;13.63;5.40;;;;;;;24.00;53.41;97907.25;5060406;28;20216;-30